Time;durP1;ratioP1;P1;durP2;ratioP2;P2;SDS_P1;SDS_P2;PMS_P1;PMS_P2;Temp;Humidity;BMP_temperature;BMP_pressure;BME280_temperature;BME280_humidity;BME280_pressure;Samples;Min_cycle;Max_cycle;Signal;HPM_P1;HPM_P2
2022/09/15 00:01:20;;;;;;;0.70;0.70;;;;;;;;;;5092534;28;20442;-76
2022/09/15 00:03:46;;;;;;;2.77;1.13;;;;;;;;;;5091252;28;20424;-76
2022/09/15 00:06:14;;;;;;;1.00;0.97;;;;;;;;;;5064793;28;20843;-76
2022/09/15 00:08:43;;;;;;;0.70;0.70;;;;;;;;;;5075739;28;20991;-77
2022/09/15 00:11:13;;;;;;;1.27;1.17;;;;;;;;;;5080821;28;20450;-77
2022/09/15 00:13:42;;;;;;;1.73;1.57;;;;;;;;;;5082862;28;20439;-77
2022/09/15 00:16:09;;;;;;;1.67;1.47;;;;;;;;;;5081236;28;20463;-76
2022/09/15 00:18:41;;;;;;;0.70;0.70;;;;;;;;;;5079205;28;20459;-77
2022/09/15 00:21:13;;;;;;;0.70;0.70;;;;;;;;;;5088558;28;20476;-77
2022/09/15 00:23:41;;;;;;;0.90;0.90;;;;;;;;;;5083489;28;20439;-77
2022/09/15 00:26:09;;;;;;;1.40;1.30;;;;;;;;;;5094101;28;20456;-77
2022/09/15 00:28:35;;;;;;;1.43;1.33;;;;;;;;;;5079736;28;20795;-76
2022/09/15 00:31:05;;;;;;;0.70;0.70;;;;;;;;;;5085677;28;20437;-77
2022/09/15 00:33:32;;;;;;;0.80;0.80;;;;;;;;;;5100841;28;20465;-77
2022/09/15 00:36:00;;;;;;;0.70;0.70;;;;;;;;;;5080129;28;20491;-77
2022/09/15 00:38:27;;;;;;;0.70;0.70;;;;;;;;;;5078965;28;20441;-76
2022/09/15 00:40:55;;;;;;;0.80;0.80;;;;;;;;;;5084016;28;20468;-76
2022/09/15 00:43:41;;;;;;;0.80;0.80;;;;;;;;;;5101234;28;20527;-77
2022/09/15 00:46:09;;;;;;;0.60;0.60;;;;;;;;;;5066474;28;20442;-76
2022/09/15 00:48:37;;;;;;;0.70;0.60;;;;;;;;;;5079943;28;20944;-77
2022/09/15 00:51:05;;;;;;;0.70;0.70;;;;;;;;;;5091092;28;20489;-77
2022/09/15 00:53:32;;;;;;;0.70;0.70;;;;;;;;;;5074117;28;20441;-77
2022/09/15 00:56:01;;;;;;;0.60;0.60;;;;;;;;;;5074477;28;20964;-77
2022/09/15 00:58:54;;;;;;;2.47;1.97;;;;;;;;;;5073505;28;20446;-77
2022/09/15 01:01:27;;;;;;;1.53;1.43;;;;;;;;;;5084098;28;20480;-76
2022/09/15 01:03:59;;;;;;;1.20;0.83;;;;;;;;;;5068951;28;20964;-77
2022/09/15 01:06:30;;;;;;;1.07;1.07;;;;;;;;;;5062383;28;20895;-77
2022/09/15 01:09:05;;;;;;;1.93;1.80;;;;;;;;;;5078760;28;20455;-77
2022/09/15 01:11:34;;;;;;;0.70;0.67;;;;;;;;;;5084920;28;20789;-77
2022/09/15 01:14:04;;;;;;;0.80;0.80;;;;;;;;;;5082582;28;20496;-77
2022/09/15 01:16:41;;;;;;;2.20;2.10;;;;;;;;;;5080312;28;20448;-77
2022/09/15 01:19:22;;;;;;;0.70;0.70;;;;;;;;;;5055543;28;20443;-77
2022/09/15 01:21:50;;;;;;;0.70;0.70;;;;;;;;;;5072605;28;20455;-76
2022/09/15 01:24:40;;;;;;;0.70;0.70;;;;;;;;;;5078992;28;20454;-76
2022/09/15 01:27:37;;;;;;;0.60;0.60;;;;;;;;;;5056618;28;20501;-77
2022/09/15 01:30:15;;;;;;;0.70;0.70;;;;;;;;;;5048793;28;20469;-76
2022/09/15 01:33:04;;;;;;;0.60;0.60;;;;;;;;;;5081880;28;20442;-77
2022/09/15 01:35:47;;;;;;;0.73;0.73;;;;;;;;;;5076358;28;20495;-77
2022/09/15 01:38:22;;;;;;;0.70;0.60;;;;;;;;;;5062317;28;20471;-76
2022/09/15 01:40:58;;;;;;;0.90;0.90;;;;;;;;;;5094017;28;20525;-76
2022/09/15 01:43:40;;;;;;;0.60;0.60;;;;;;;;;;5075474;28;20991;-77
2022/09/15 01:46:13;;;;;;;0.60;0.60;;;;;;;;;;5076617;28;20442;-76
2022/09/15 01:48:46;;;;;;;0.83;0.83;;;;;;;;;;5072725;28;20466;-77
2022/09/15 01:51:18;;;;;;;0.80;0.80;;;;;;;;;;5073627;28;20478;-77
2022/09/15 01:53:59;;;;;;;0.60;0.60;;;;;;;;;;5086441;28;20529;-76
2022/09/15 01:56:29;;;;;;;0.70;0.60;;;;;;;;;;5080303;28;20432;-77
2022/09/15 01:59:01;;;;;;;0.60;0.60;;;;;;;;;;5065187;28;20846;-77
2022/09/15 02:01:48;;;;;;;0.70;0.60;;;;;;;;;;5065803;28;20450;-76
2022/09/15 02:04:20;;;;;;;0.60;0.60;;;;;;;;;;5046825;28;20799;-75
2022/09/15 02:06:50;;;;;;;0.60;0.60;;;;;;;;;;5099854;28;20989;-76
2022/09/15 02:09:20;;;;;;;0.60;0.60;;;;;;;;;;5085831;28;20872;-76
2022/09/15 02:11:57;;;;;;;0.80;0.80;;;;;;;;;;5070027;28;20854;-76
2022/09/15 02:14:32;;;;;;;0.70;0.70;;;;;;;;;;5081565;28;20473;-77
2022/09/15 02:17:04;;;;;;;0.70;0.70;;;;;;;;;;5061725;28;20462;-76
2022/09/15 02:19:34;;;;;;;0.67;0.67;;;;;;;;;;5076599;28;20457;-76
2022/09/15 02:22:06;;;;;;;0.70;0.70;;;;;;;;;;5058214;28;21003;-76
2022/09/15 02:24:36;;;;;;;0.60;0.60;;;;;;;;;;5058836;28;20511;-77
2022/09/15 02:27:04;;;;;;;1.00;0.90;;;;;;;;;;5098827;28;20526;-76
2022/09/15 02:29:35;;;;;;;0.70;0.70;;;;;;;;;;5083226;28;20465;-77
2022/09/15 02:32:05;;;;;;;0.60;0.60;;;;;;;;;;5082100;28;20433;-77
2022/09/15 02:34:38;;;;;;;0.60;0.60;;;;;;;;;;5091445;28;20457;-76
2022/09/15 02:37:05;;;;;;;0.60;0.60;;;;;;;;;;5092736;28;20870;-77
2022/09/15 02:39:33;;;;;;;0.63;0.63;;;;;;;;;;5073808;28;20425;-77
2022/09/15 02:42:01;;;;;;;0.93;0.93;;;;;;;;;;5079151;28;20450;-77
2022/09/15 02:44:31;;;;;;;1.77;1.67;;;;;;;;;;5109393;28;20930;-76
2022/09/15 02:47:00;;;;;;;0.60;0.60;;;;;;;;;;5082108;28;20451;-76
2022/09/15 02:49:29;;;;;;;0.70;0.70;;;;;;;;;;5082351;28;20513;-76
2022/09/15 02:51:56;;;;;;;4.13;2.27;;;;;;;;;;5084360;28;20454;-77
2022/09/15 02:54:22;;;;;;;0.80;0.80;;;;;;;;;;5085686;28;20911;-77
2022/09/15 02:56:49;;;;;;;1.57;1.37;;;;;;;;;;5085034;28;20463;-76
2022/09/15 02:59:16;;;;;;;0.87;0.87;;;;;;;;;;5086128;28;20468;-76
2022/09/15 03:01:43;;;;;;;0.60;0.60;;;;;;;;;;5080263;28;20980;-77
2022/09/15 03:04:10;;;;;;;0.70;0.70;;;;;;;;;;5078703;28;20904;-77
2022/09/15 03:06:39;;;;;;;0.60;0.60;;;;;;;;;;5094735;28;21029;-76
2022/09/15 03:09:07;;;;;;;0.87;0.87;;;;;;;;;;5087532;28;20502;-77
2022/09/15 03:11:34;;;;;;;1.40;1.30;;;;;;;;;;5083386;28;20437;-76
2022/09/15 03:14:03;;;;;;;0.60;0.60;;;;;;;;;;5106823;28;20792;-77
2022/09/15 03:16:30;;;;;;;0.70;0.60;;;;;;;;;;5085012;28;20453;-76
2022/09/15 03:18:58;;;;;;;0.90;0.90;;;;;;;;;;5082116;28;21013;-77
2022/09/15 03:21:26;;;;;;;0.70;0.70;;;;;;;;;;5084434;28;20454;-77
2022/09/15 03:23:54;;;;;;;0.60;0.60;;;;;;;;;;5099148;28;20496;-76
2022/09/15 03:26:21;;;;;;;0.70;0.70;;;;;;;;;;5084359;28;20970;-77
2022/09/15 03:28:47;;;;;;;0.70;0.70;;;;;;;;;;5078373;28;20453;-77
2022/09/15 03:31:14;;;;;;;0.60;0.60;;;;;;;;;;5060169;28;20948;-78
2022/09/15 03:33:41;;;;;;;0.60;0.50;;;;;;;;;;5074621;28;20566;-77
2022/09/15 03:36:09;;;;;;;0.60;0.60;;;;;;;;;;5075423;28;20456;-76
2022/09/15 03:38:35;;;;;;;0.60;0.60;;;;;;;;;;5083947;28;20909;-77
2022/09/15 03:41:06;;;;;;;0.70;0.60;;;;;;;;;;5068792;28;20523;-77
2022/09/15 03:43:34;;;;;;;0.60;0.60;;;;;;;;;;5080141;28;20452;-77
2022/09/15 03:46:01;;;;;;;1.73;1.63;;;;;;;;;;5083369;28;20454;-77
2022/09/15 03:48:28;;;;;;;0.60;0.60;;;;;;;;;;5084426;28;20467;-77
2022/09/15 03:50:56;;;;;;;0.60;0.60;;;;;;;;;;5084332;28;20483;-77
2022/09/15 03:53:23;;;;;;;0.60;0.60;;;;;;;;;;5078726;28;21003;-76
2022/09/15 03:55:50;;;;;;;1.63;1.33;;;;;;;;;;5083747;28;20483;-77
2022/09/15 03:58:18;;;;;;;0.70;0.70;;;;;;;;;;5108292;28;20454;-77
2022/09/15 04:00:45;;;;;;;0.67;0.67;;;;;;;;;;5092539;28;20446;-77
2022/09/15 04:03:13;;;;;;;0.60;0.60;;;;;;;;;;5104389;28;20428;-77
2022/09/15 04:05:40;;;;;;;0.60;0.60;;;;;;;;;;5085410;28;20497;-77
2022/09/15 04:08:10;;;;;;;0.60;0.60;;;;;;;;;;5082060;28;20444;-76
2022/09/15 04:10:37;;;;;;;0.60;0.60;;;;;;;;;;5093573;28;20470;-76
2022/09/15 04:13:04;;;;;;;0.70;0.60;;;;;;;;;;5081357;28;20518;-76
2022/09/15 04:15:33;;;;;;;0.60;0.60;;;;;;;;;;5082139;28;20451;-76
2022/09/15 04:18:00;;;;;;;0.63;0.63;;;;;;;;;;5079995;28;20430;-77
2022/09/15 04:20:27;;;;;;;0.60;0.60;;;;;;;;;;5066729;28;20430;-77
2022/09/15 04:22:54;;;;;;;0.60;0.50;;;;;;;;;;5085011;28;20526;-77
2022/09/15 04:25:20;;;;;;;0.70;0.70;;;;;;;;;;5074647;28;20913;-76
2022/09/15 04:27:47;;;;;;;0.70;0.70;;;;;;;;;;5073634;28;20541;-77
2022/09/15 04:30:14;;;;;;;1.37;1.23;;;;;;;;;;5074748;28;20458;-77
2022/09/15 04:32:42;;;;;;;1.20;0.97;;;;;;;;;;5077219;28;20441;-77
2022/09/15 04:35:09;;;;;;;0.60;0.60;;;;;;;;;;5078494;28;20941;-77
2022/09/15 04:37:35;;;;;;;0.60;0.60;;;;;;;;;;5080125;28;20935;-76
2022/09/15 04:40:05;;;;;;;0.60;0.60;;;;;;;;;;5082887;28;20445;-77
2022/09/15 04:42:32;;;;;;;0.60;0.60;;;;;;;;;;5062646;28;20483;-78
2022/09/15 04:44:59;;;;;;;0.70;0.60;;;;;;;;;;5083291;28;20517;-77
2022/09/15 04:47:26;;;;;;;0.60;0.60;;;;;;;;;;5087893;28;20432;-76
2022/09/15 04:49:55;;;;;;;0.83;0.83;;;;;;;;;;5088370;28;20462;-77
2022/09/15 04:52:22;;;;;;;4.50;1.07;;;;;;;;;;5090504;28;20533;-76
2022/09/15 04:54:48;;;;;;;0.60;0.60;;;;;;;;;;5091777;28;20999;-77
2022/09/15 04:57:15;;;;;;;0.80;0.80;;;;;;;;;;5088922;28;20984;-77
2022/09/15 04:59:42;;;;;;;0.70;0.70;;;;;;;;;;5106562;28;20438;-76
2022/09/15 05:02:09;;;;;;;0.60;0.60;;;;;;;;;;5079511;28;20950;-77
2022/09/15 05:04:36;;;;;;;1.57;0.97;;;;;;;;;;5079344;28;20471;-76
2022/09/15 05:07:04;;;;;;;0.60;0.60;;;;;;;;;;5082220;28;20457;-76
2022/09/15 05:09:30;;;;;;;0.60;0.60;;;;;;;;;;5098816;28;20836;-76
2022/09/15 05:11:58;;;;;;;0.60;0.60;;;;;;;;;;5080480;28;20486;-76
2022/09/15 05:14:25;;;;;;;0.60;0.60;;;;;;;;;;5082997;28;20430;-77
2022/09/15 05:16:52;;;;;;;0.80;0.80;;;;;;;;;;5082755;28;20529;-76
2022/09/15 05:19:19;;;;;;;0.70;0.70;;;;;;;;;;5075002;28;20448;-77
2022/09/15 05:21:45;;;;;;;0.67;0.67;;;;;;;;;;5074697;28;20824;-76
2022/09/15 05:24:13;;;;;;;0.60;0.60;;;;;;;;;;5075217;28;20443;-76
2022/09/15 05:26:40;;;;;;;0.70;0.70;;;;;;;;;;5075166;28;20455;-76
2022/09/15 05:29:07;;;;;;;0.70;0.70;;;;;;;;;;5077559;28;20807;-76
2022/09/15 05:31:34;;;;;;;0.70;0.60;;;;;;;;;;5079494;28;20529;-76
2022/09/15 05:34:03;;;;;;;1.33;1.23;;;;;;;;;;5078674;28;20446;-76
2022/09/15 05:36:30;;;;;;;0.70;0.70;;;;;;;;;;5082978;28;20460;-77
2022/09/15 05:38:57;;;;;;;1.57;1.47;;;;;;;;;;5086046;28;20437;-75
2022/09/15 05:41:26;;;;;;;0.60;0.60;;;;;;;;;;5081187;28;20446;-76
2022/09/15 05:43:55;;;;;;;0.70;0.70;;;;;;;;;;5076273;28;20909;-75
2022/09/15 05:46:24;;;;;;;0.60;0.60;;;;;;;;;;5077823;28;20490;-75
2022/09/15 05:48:53;;;;;;;0.60;0.60;;;;;;;;;;5092839;28;21006;-75
2022/09/15 05:51:20;;;;;;;1.07;0.87;;;;;;;;;;5090563;28;20476;-75
2022/09/15 05:53:47;;;;;;;0.70;0.70;;;;;;;;;;5105721;28;20529;-75
2022/09/15 05:56:15;;;;;;;0.60;0.60;;;;;;;;;;5078770;28;20447;-77
2022/09/15 05:58:44;;;;;;;0.77;0.77;;;;;;;;;;5095530;28;20767;-76
2022/09/15 06:01:12;;;;;;;0.70;0.70;;;;;;;;;;5078882;28;20530;-77
2022/09/15 06:03:39;;;;;;;0.60;0.60;;;;;;;;;;5084341;28;20937;-77
2022/09/15 06:06:07;;;;;;;0.70;0.70;;;;;;;;;;5084381;28;20456;-76
2022/09/15 06:08:35;;;;;;;0.70;0.70;;;;;;;;;;5083014;28;20429;-76
2022/09/15 06:11:03;;;;;;;0.60;0.60;;;;;;;;;;5080883;28;20471;-78
2022/09/15 06:13:30;;;;;;;0.70;0.63;;;;;;;;;;5077414;28;20432;-75
2022/09/15 06:16:03;;;;;;;0.83;0.83;;;;;;;;;;5075363;28;20436;-77
2022/09/15 06:18:30;;;;;;;0.70;0.70;;;;;;;;;;5078915;28;20854;-75
2022/09/15 06:21:01;;;;;;;0.70;0.70;;;;;;;;;;5077051;28;20460;-75
2022/09/15 06:23:27;;;;;;;1.53;0.80;;;;;;;;;;5077560;28;20445;-75
2022/09/15 06:25:54;;;;;;;0.60;0.60;;;;;;;;;;5081740;28;20440;-77
2022/09/15 06:28:22;;;;;;;0.70;0.70;;;;;;;;;;5086302;28;20429;-76
2022/09/15 06:30:48;;;;;;;0.70;0.70;;;;;;;;;;5086324;28;20470;-77
2022/09/15 06:33:17;;;;;;;0.73;0.73;;;;;;;;;;5089649;28;20428;-77
2022/09/15 06:36:06;;;;;;;0.70;0.70;;;;;;;;;;5090562;28;20912;-77
2022/09/15 06:38:32;;;;;;;0.70;0.63;;;;;;;;;;5086193;28;20809;-77
2022/09/15 06:40:59;;;;;;;0.80;0.80;;;;;;;;;;5072838;28;20437;-77
2022/09/15 06:43:26;;;;;;;0.93;0.93;;;;;;;;;;5076999;28;20432;-77
2022/09/15 06:45:59;;;;;;;0.70;0.70;;;;;;;;;;5077235;28;20445;-77
2022/09/15 06:48:28;;;;;;;2.03;1.50;;;;;;;;;;5063060;28;20445;-76
2022/09/15 06:50:55;;;;;;;0.80;0.80;;;;;;;;;;5082352;28;20490;-76
2022/09/15 06:53:22;;;;;;;1.10;1.00;;;;;;;;;;5083870;28;20434;-77
2022/09/15 06:55:49;;;;;;;0.60;0.60;;;;;;;;;;5085608;28;20434;-76
2022/09/15 06:58:16;;;;;;;0.70;0.70;;;;;;;;;;5085598;28;20444;-76
2022/09/15 07:00:43;;;;;;;0.70;0.70;;;;;;;;;;5083015;28;20439;-77
2022/09/15 07:03:10;;;;;;;4.20;1.47;;;;;;;;;;5079851;28;20509;-76
2022/09/15 07:05:39;;;;;;;1.00;1.00;;;;;;;;;;5080008;28;20544;-76
2022/09/15 07:08:06;;;;;;;0.67;0.67;;;;;;;;;;5073259;28;20441;-76
2022/09/15 07:10:33;;;;;;;0.67;0.60;;;;;;;;;;5076629;28;20475;-77
2022/09/15 07:13:02;;;;;;;0.90;0.90;;;;;;;;;;5077774;28;20531;-77
2022/09/15 07:15:28;;;;;;;0.70;0.70;;;;;;;;;;5074572;28;20498;-76
2022/09/15 07:17:55;;;;;;;0.70;0.70;;;;;;;;;;5080449;28;20434;-76
2022/09/15 07:20:22;;;;;;;0.60;0.60;;;;;;;;;;5083912;28;20531;-76
2022/09/15 07:22:50;;;;;;;0.80;0.80;;;;;;;;;;5083735;28;20469;-76
2022/09/15 07:25:17;;;;;;;1.27;0.90;;;;;;;;;;5081268;28;20539;-75
2022/09/15 07:27:43;;;;;;;1.37;1.27;;;;;;;;;;5083407;28;20435;-76
2022/09/15 07:30:12;;;;;;;0.70;0.70;;;;;;;;;;5079646;28;20430;-76
2022/09/15 07:32:39;;;;;;;0.70;0.70;;;;;;;;;;5092783;28;20441;-77
2022/09/15 07:35:06;;;;;;;0.77;0.77;;;;;;;;;;5109424;28;20812;-77
2022/09/15 07:37:33;;;;;;;0.80;0.80;;;;;;;;;;5083785;28;20477;-75
2022/09/15 07:40:01;;;;;;;1.30;1.20;;;;;;;;;;5080563;28;20453;-77
2022/09/15 07:42:28;;;;;;;1.77;1.67;;;;;;;;;;5089822;28;20430;-76
2022/09/15 07:45:00;;;;;;;1.00;1.00;;;;;;;;;;5080962;28;20440;-76
2022/09/15 07:47:27;;;;;;;1.23;1.07;;;;;;;;;;5102198;28;20433;-76
2022/09/15 07:49:54;;;;;;;1.70;1.00;;;;;;;;;;5099268;28;20443;-75
2022/09/15 07:52:21;;;;;;;0.80;0.80;;;;;;;;;;5083334;28;21005;-75
2022/09/15 07:54:48;;;;;;;0.70;0.70;;;;;;;;;;5078049;28;20502;-75
2022/09/15 07:57:16;;;;;;;0.70;0.60;;;;;;;;;;5079581;28;20948;-75
2022/09/15 07:59:43;;;;;;;0.97;0.90;;;;;;;;;;5078173;28;20935;-75
2022/09/15 08:02:14;;;;;;;0.93;0.93;;;;;;;;;;5076718;28;20423;-76
2022/09/15 08:04:41;;;;;;;4.20;1.63;;;;;;;;;;5076500;28;20443;-76
2022/09/15 08:07:08;;;;;;;1.67;1.30;;;;;;;;;;5088568;28;20457;-75
2022/09/15 08:09:35;;;;;;;0.70;0.70;;;;;;;;;;5074328;28;20501;-75
2022/09/15 08:12:03;;;;;;;0.63;0.63;;;;;;;;;;5082217;28;20471;-75
2022/09/15 08:14:31;;;;;;;1.73;1.53;;;;;;;;;;5075859;28;20450;-76
2022/09/15 08:17:03;;;;;;;1.13;1.07;;;;;;;;;;5082854;28;20434;-76
2022/09/15 08:19:36;;;;;;;0.70;0.60;;;;;;;;;;5082763;28;20497;-75
2022/09/15 08:22:04;;;;;;;0.70;0.70;;;;;;;;;;5085790;28;20443;-75
2022/09/15 08:24:31;;;;;;;3.50;1.73;;;;;;;;;;5078074;28;20436;-74
2022/09/15 08:26:58;;;;;;;0.80;0.80;;;;;;;;;;5077402;28;20437;-74
2022/09/15 08:29:25;;;;;;;1.43;0.80;;;;;;;;;;5074747;28;20516;-75
2022/09/15 08:31:53;;;;;;;1.30;1.20;;;;;;;;;;5074125;28;20467;-74
2022/09/15 08:34:20;;;;;;;0.70;0.70;;;;;;;;;;5089634;28;21028;-74
2022/09/15 08:36:47;;;;;;;0.70;0.70;;;;;;;;;;5078838;28;20963;-74
2022/09/15 08:39:13;;;;;;;0.70;0.60;;;;;;;;;;5083868;28;20429;-73
2022/09/15 08:41:43;;;;;;;0.70;0.70;;;;;;;;;;5084008;28;20875;-73
2022/09/15 08:44:18;;;;;;;0.80;0.80;;;;;;;;;;5083448;28;20545;-74
2022/09/15 08:46:47;;;;;;;1.10;1.00;;;;;;;;;;5096342;28;20512;-73
2022/09/15 08:49:17;;;;;;;1.20;1.10;;;;;;;;;;5078583;28;20497;-74
2022/09/15 08:52:06;;;;;;;0.90;0.90;;;;;;;;;;5077574;28;20827;-74
2022/09/15 08:54:33;;;;;;;2.07;1.00;;;;;;;;;;5076776;28;20495;-73
2022/09/15 08:57:02;;;;;;;0.80;0.80;;;;;;;;;;5090362;28;20454;-74
2022/09/15 08:59:31;;;;;;;1.53;1.23;;;;;;;;;;5056993;28;20457;-74
2022/09/15 09:02:05;;;;;;;1.27;1.17;;;;;;;;;;5090737;28;20424;-73
2022/09/15 09:04:47;;;;;;;3.57;2.17;;;;;;;;;;5094083;28;20441;-73
2022/09/15 09:07:24;;;;;;;1.20;1.10;;;;;;;;;;5099161;28;20454;-73
2022/09/15 09:09:55;;;;;;;0.80;0.80;;;;;;;;;;5064330;28;20458;-73
2022/09/15 09:12:30;;;;;;;3.70;1.67;;;;;;;;;;5096892;28;20474;-74
2022/09/15 09:15:04;;;;;;;1.20;1.10;;;;;;;;;;5080099;28;20426;-73
2022/09/15 09:17:37;;;;;;;1.33;1.13;;;;;;;;;;5088086;28;20426;-72
2022/09/15 09:20:15;;;;;;;1.37;1.27;;;;;;;;;;5074291;28;20479;-73
2022/09/15 09:22:46;;;;;;;0.90;0.90;;;;;;;;;;5086904;28;20416;-73
2022/09/15 09:25:13;;;;;;;1.00;1.00;;;;;;;;;;5091610;28;20541;-74
2022/09/15 09:27:53;;;;;;;0.87;0.87;;;;;;;;;;5078013;28;20805;-74
2022/09/15 09:30:21;;;;;;;1.27;1.17;;;;;;;;;;5082938;28;20518;-74
2022/09/15 09:32:50;;;;;;;1.13;1.03;;;;;;;;;;5098589;28;20969;-74
2022/09/15 09:35:21;;;;;;;1.43;1.33;;;;;;;;;;5080904;28;20454;-73
2022/09/15 09:37:52;;;;;;;0.90;0.90;;;;;;;;;;5080830;28;20529;-73
2022/09/15 09:40:19;;;;;;;0.87;0.83;;;;;;;;;;5081108;28;20426;-73
2022/09/15 09:42:46;;;;;;;0.80;0.80;;;;;;;;;;5078425;28;20433;-73
2022/09/15 09:45:13;;;;;;;1.80;1.70;;;;;;;;;;5079466;28;20509;-73
2022/09/15 09:47:41;;;;;;;0.90;0.90;;;;;;;;;;5078680;28;20438;-73
2022/09/15 09:50:26;;;;;;;0.80;0.80;;;;;;;;;;5078201;28;20433;-73
2022/09/15 09:52:56;;;;;;;1.30;1.20;;;;;;;;;;5072658;28;20992;-73
2022/09/15 09:55:25;;;;;;;0.73;0.70;;;;;;;;;;5075567;28;20450;-73
2022/09/15 09:57:53;;;;;;;0.70;0.70;;;;;;;;;;5088460;28;20896;-73
2022/09/15 10:00:30;;;;;;;1.10;1.10;;;;;;;;;;5096209;28;20417;-73
2022/09/15 10:02:57;;;;;;;0.70;0.70;;;;;;;;;;5080385;28;21188;-73
2022/09/15 10:05:24;;;;;;;0.80;0.70;;;;;;;;;;5078164;28;20961;-73
2022/09/15 10:07:51;;;;;;;0.70;0.70;;;;;;;;;;5081880;28;20431;-73
2022/09/15 10:10:21;;;;;;;0.70;0.63;;;;;;;;;;5081616;28;20460;-73
2022/09/15 10:12:48;;;;;;;0.70;0.70;;;;;;;;;;5078656;28;20477;-73
2022/09/15 10:15:20;;;;;;;0.70;0.70;;;;;;;;;;5074157;28;20410;-73
2022/09/15 10:17:48;;;;;;;0.70;0.70;;;;;;;;;;5053739;28;20436;-73
2022/09/15 10:20:27;;;;;;;0.70;0.70;;;;;;;;;;5073984;28;20901;-73
2022/09/15 10:23:01;;;;;;;0.70;0.70;;;;;;;;;;5074985;28;20442;-74
2022/09/15 10:25:31;;;;;;;1.20;1.10;;;;;;;;;;5096091;28;20991;-73
2022/09/15 10:28:18;;;;;;;0.70;0.70;;;;;;;;;;5101734;28;20444;-73
2022/09/15 10:30:57;;;;;;;0.70;0.70;;;;;;;;;;5078567;28;20430;-73
2022/09/15 10:33:25;;;;;;;0.80;0.70;;;;;;;;;;5082074;28;20434;-73
2022/09/15 10:35:53;;;;;;;0.70;0.70;;;;;;;;;;5103014;28;20453;-73
2022/09/15 10:38:25;;;;;;;0.70;0.70;;;;;;;;;;5098069;28;20410;-73
2022/09/15 10:40:55;;;;;;;0.80;0.73;;;;;;;;;;5089537;28;20432;-74
2022/09/15 10:43:27;;;;;;;1.97;1.87;;;;;;;;;;5077901;28;20469;-73
2022/09/15 10:45:58;;;;;;;0.70;0.70;;;;;;;;;;5055616;28;20423;-73
2022/09/15 10:48:32;;;;;;;0.80;0.80;;;;;;;;;;5073885;28;20471;-74
2022/09/15 10:51:04;;;;;;;0.70;0.70;;;;;;;;;;5074558;28;21196;-73
2022/09/15 10:53:35;;;;;;;0.70;0.70;;;;;;;;;;5073724;28;20498;-74
2022/09/15 10:56:09;;;;;;;0.80;0.70;;;;;;;;;;5066919;28;20447;-72
2022/09/15 10:58:46;;;;;;;0.70;0.70;;;;;;;;;;5075190;28;20407;-72
2022/09/15 11:01:30;;;;;;;0.70;0.60;;;;;;;;;;5081846;28;20443;-73
2022/09/15 11:04:05;;;;;;;0.80;0.80;;;;;;;;;;5081964;28;20419;-73
2022/09/15 11:06:35;;;;;;;0.80;0.80;;;;;;;;;;5071535;28;20435;-73
2022/09/15 11:09:10;;;;;;;0.70;0.63;;;;;;;;;;5079615;28;20474;-73
2022/09/15 11:11:43;;;;;;;0.70;0.60;;;;;;;;;;5075484;28;20458;-73
2022/09/15 11:14:17;;;;;;;0.90;0.80;;;;;;;;;;5073449;28;20432;-74
2022/09/15 11:16:51;;;;;;;0.70;0.60;;;;;;;;;;5080805;28;20408;-74
2022/09/15 11:19:29;;;;;;;0.80;0.80;;;;;;;;;;5082663;28;20458;-74
2022/09/15 11:21:56;;;;;;;0.80;0.70;;;;;;;;;;5082973;28;20430;-71
2022/09/15 11:24:27;;;;;;;0.90;0.90;;;;;;;;;;5081235;28;20500;-72
2022/09/15 11:26:59;;;;;;;4.03;1.47;;;;;;;;;;5099308;28;20433;-71
2022/09/15 11:29:28;;;;;;;0.70;0.70;;;;;;;;;;5083549;28;20401;-70
2022/09/15 11:31:56;;;;;;;0.80;0.73;;;;;;;;;;5083466;28;20474;-71
2022/09/15 11:34:25;;;;;;;0.70;0.60;;;;;;;;;;5075552;28;20459;-73
2022/09/15 11:36:55;;;;;;;0.80;0.70;;;;;;;;;;5073989;28;20453;-70
2022/09/15 11:39:27;;;;;;;0.80;0.80;;;;;;;;;;5107368;28;20849;-71
2022/09/15 11:41:58;;;;;;;0.80;0.80;;;;;;;;;;5090676;28;20422;-70
2022/09/15 11:44:29;;;;;;;0.70;0.70;;;;;;;;;;5084916;28;20479;-70
2022/09/15 11:47:06;;;;;;;0.90;0.87;;;;;;;;;;5068741;28;20465;-70
2022/09/15 11:49:42;;;;;;;0.70;0.70;;;;;;;;;;5082119;28;20397;-71
2022/09/15 11:52:13;;;;;;;1.10;1.00;;;;;;;;;;5078424;28;20857;-70
2022/09/15 11:54:44;;;;;;;0.80;0.77;;;;;;;;;;5083035;28;20522;-70
2022/09/15 11:57:15;;;;;;;0.80;0.70;;;;;;;;;;5086454;28;20446;-72
2022/09/15 11:59:45;;;;;;;0.87;0.87;;;;;;;;;;5078146;28;20430;-71
2022/09/15 12:02:18;;;;;;;1.17;0.90;;;;;;;;;;5078841;28;20422;-71
2022/09/15 12:04:47;;;;;;;0.80;0.77;;;;;;;;;;5081416;28;20424;-71
2022/09/15 12:07:17;;;;;;;0.80;0.70;;;;;;;;;;5072723;28;20448;-71
2022/09/15 12:09:44;;;;;;;0.80;0.70;;;;;;;;;;5080664;28;20602;-70
2022/09/15 12:12:12;;;;;;;0.70;0.63;;;;;;;;;;5085807;28;20566;-71
2022/09/15 12:14:40;;;;;;;0.70;0.70;;;;;;;;;;5078263;28;20421;-71
2022/09/15 12:17:12;;;;;;;0.80;0.70;;;;;;;;;;5082068;28;20446;-71
2022/09/15 12:19:47;;;;;;;0.70;0.70;;;;;;;;;;5081995;28;20413;-71
2022/09/15 12:22:18;;;;;;;0.80;0.70;;;;;;;;;;5085067;28;20475;-71
2022/09/15 12:24:49;;;;;;;0.80;0.80;;;;;;;;;;5087088;28;20431;-71
2022/09/15 12:27:17;;;;;;;0.90;0.70;;;;;;;;;;5097623;28;20405;-71
2022/09/15 12:29:48;;;;;;;0.70;0.60;;;;;;;;;;5082684;28;20910;-71
2022/09/15 12:32:20;;;;;;;1.27;1.17;;;;;;;;;;5109906;28;20462;-71
2022/09/15 12:34:54;;;;;;;0.70;0.70;;;;;;;;;;5089288;28;20464;-71
2022/09/15 12:37:23;;;;;;;0.70;0.70;;;;;;;;;;5078225;28;20451;-71
2022/09/15 12:39:50;;;;;;;0.70;0.60;;;;;;;;;;5090754;28;20915;-71
2022/09/15 12:42:19;;;;;;;0.80;0.70;;;;;;;;;;5083340;28;20492;-70
2022/09/15 12:44:48;;;;;;;0.80;0.80;;;;;;;;;;5084996;28;20417;-71
2022/09/15 12:47:27;;;;;;;0.73;0.70;;;;;;;;;;5083092;28;20432;-71
2022/09/15 12:49:55;;;;;;;2.13;1.87;;;;;;;;;;5066798;28;20416;-73
2022/09/15 12:52:24;;;;;;;0.80;0.70;;;;;;;;;;5082899;28;21010;-72
2022/09/15 12:54:52;;;;;;;0.70;0.70;;;;;;;;;;5086175;28;20439;-71
2022/09/15 12:57:21;;;;;;;1.00;0.90;;;;;;;;;;5074970;28;20417;-72
2022/09/15 12:59:48;;;;;;;1.37;1.17;;;;;;;;;;5090409;28;20418;-72
2022/09/15 13:02:34;;;;;;;0.73;0.70;;;;;;;;;;5096056;28;20432;-73
2022/09/15 13:05:04;;;;;;;0.80;0.70;;;;;;;;;;5071098;28;20445;-72
2022/09/15 13:07:33;;;;;;;0.70;0.70;;;;;;;;;;5099445;28;20450;-73
2022/09/15 13:10:16;;;;;;;0.80;0.80;;;;;;;;;;5083879;28;20485;-73
2022/09/15 13:12:48;;;;;;;0.70;0.67;;;;;;;;;;5095178;28;20514;-74
2022/09/15 13:15:16;;;;;;;0.70;0.70;;;;;;;;;;5082676;28;20419;-73
2022/09/15 13:17:45;;;;;;;0.80;0.77;;;;;;;;;;5097006;28;20421;-73
2022/09/15 13:20:15;;;;;;;0.70;0.70;;;;;;;;;;5094766;28;20442;-77
2022/09/15 13:22:44;;;;;;;0.70;0.60;;;;;;;;;;5068076;28;20447;-72
2022/09/15 13:25:14;;;;;;;0.70;0.60;;;;;;;;;;5084565;28;20434;-73
2022/09/15 13:27:42;;;;;;;0.80;0.70;;;;;;;;;;5077097;28;20471;-73
2022/09/15 13:30:20;;;;;;;0.70;0.70;;;;;;;;;;5077980;28;20429;-73
2022/09/15 13:32:52;;;;;;;2.03;1.33;;;;;;;;;;5078669;28;20465;-73
2022/09/15 13:35:36;;;;;;;1.10;1.00;;;;;;;;;;5081412;28;20442;-73
2022/09/15 13:38:27;;;;;;;0.80;0.70;;;;;;;;;;5048132;28;20428;-73
2022/09/15 13:41:14;;;;;;;0.70;0.70;;;;;;;;;;5080904;28;20450;-73
2022/09/15 13:43:57;;;;;;;1.67;0.80;;;;;;;;;;5077462;28;20413;-74
2022/09/15 13:46:31;;;;;;;0.70;0.60;;;;;;;;;;5078915;28;20436;-73
2022/09/15 13:49:09;;;;;;;0.80;0.70;;;;;;;;;;5076124;28;20465;-73
2022/09/15 13:51:38;;;;;;;0.77;0.70;;;;;;;;;;5078097;28;20469;-74
2022/09/15 13:54:14;;;;;;;0.70;0.70;;;;;;;;;;5075930;28;20455;-73
2022/09/15 13:56:42;;;;;;;0.70;0.60;;;;;;;;;;5079032;28;20510;-73
2022/09/15 13:59:14;;;;;;;0.80;0.70;;;;;;;;;;5068902;28;20488;-73
2022/09/15 14:01:44;;;;;;;0.70;0.70;;;;;;;;;;5079532;28;20451;-73
2022/09/15 14:04:13;;;;;;;0.80;0.73;;;;;;;;;;5082565;28;20438;-73
2022/09/15 14:06:41;;;;;;;1.03;0.80;;;;;;;;;;5074087;28;20562;-72
2022/09/15 14:09:13;;;;;;;0.70;0.70;;;;;;;;;;5084596;28;20426;-72
2022/09/15 14:11:41;;;;;;;0.70;0.60;;;;;;;;;;5081841;28;20453;-73
2022/09/15 14:14:09;;;;;;;0.70;0.63;;;;;;;;;;5081581;28;20540;-73
2022/09/15 14:16:38;;;;;;;0.70;0.70;;;;;;;;;;5074739;28;20828;-73
2022/09/15 14:19:25;;;;;;;0.80;0.70;;;;;;;;;;5064512;28;20449;-74
2022/09/15 14:21:52;;;;;;;0.70;0.70;;;;;;;;;;5079632;28;20467;-73
2022/09/15 14:24:27;;;;;;;0.80;0.80;;;;;;;;;;5074859;28;20424;-73
2022/09/15 14:26:55;;;;;;;1.00;0.80;;;;;;;;;;5084717;28;20459;-73
2022/09/15 14:29:25;;;;;;;0.80;0.80;;;;;;;;;;5081463;28;20554;-72
2022/09/15 14:31:52;;;;;;;0.80;0.73;;;;;;;;;;5082822;28;20552;-73
2022/09/15 14:34:23;;;;;;;0.77;0.70;;;;;;;;;;5087929;28;20486;-72
2022/09/15 14:36:58;;;;;;;0.80;0.80;;;;;;;;;;5080154;28;20784;-72
2022/09/15 14:39:26;;;;;;;0.80;0.70;;;;;;;;;;5084515;28;20433;-70
2022/09/15 14:41:53;;;;;;;0.80;0.73;;;;;;;;;;5085865;28;20445;-71
2022/09/15 14:44:25;;;;;;;0.80;0.80;;;;;;;;;;5084441;28;20434;-72
2022/09/15 14:47:12;;;;;;;0.90;0.80;;;;;;;;;;5080984;28;20480;-72
2022/09/15 14:49:39;;;;;;;0.80;0.70;;;;;;;;;;5080183;28;20433;-72
2022/09/15 14:52:14;;;;;;;0.70;0.70;;;;;;;;;;5101623;28;20477;-72
2022/09/15 14:54:42;;;;;;;0.73;0.67;;;;;;;;;;5081358;28;20932;-72
2022/09/15 14:57:19;;;;;;;0.70;0.60;;;;;;;;;;5082247;28;20809;-72
2022/09/15 14:59:49;;;;;;;0.70;0.70;;;;;;;;;;5087560;28;20911;-72
2022/09/15 15:02:20;;;;;;;0.70;0.70;;;;;;;;;;5083175;28;20438;-72